createdAt,value
2023-02-04T00:04:43.139Z,5.03
2023-02-04T00:09:47.377Z,6.33
2023-02-04T00:14:51.799Z,5.57
2023-02-04T00:19:54.842Z,5.37
2023-02-04T00:24:58.048Z,7.07
2023-02-04T00:30:02.380Z,5.23
2023-02-04T00:35:05.677Z,4.80
2023-02-04T00:40:09.946Z,4.50
2023-02-04T00:45:16.441Z,5.33
2023-02-04T00:50:20.672Z,4.57
2023-02-04T00:55:23.686Z,5.27
2023-02-04T01:00:28.450Z,4.80
2023-02-04T01:05:31.611Z,4.80
2023-02-04T01:10:34.777Z,4.57
2023-02-04T01:15:39.600Z,5.63
2023-02-04T01:20:42.731Z,5.30
2023-02-04T01:25:45.846Z,5.70
2023-02-04T01:30:50.454Z,4.87
2023-02-04T01:35:53.663Z,5.30
2023-02-04T01:40:57.285Z,5.10
2023-02-04T01:46:02.642Z,5.00
2023-02-04T01:51:08.765Z,5.10
2023-02-04T01:56:18.745Z,6.33
2023-02-04T02:01:38.455Z,5.37
2023-02-04T02:06:45.392Z,4.67
2023-02-04T02:11:49.119Z,5.17
2023-02-04T02:16:53.736Z,5.43
2023-02-04T02:22:05.205Z,6.47
2023-02-04T02:27:12.634Z,6.57
2023-02-04T02:32:16.707Z,6.43
2023-02-04T02:37:19.841Z,6.37
2023-02-04T02:42:24.810Z,7.07
2023-02-04T02:47:28.420Z,6.37
2023-02-04T02:52:31.601Z,6.13
2023-02-04T02:57:36.243Z,6.63
2023-02-04T03:02:39.752Z,6.97
2023-02-04T03:07:42.914Z,7.10
2023-02-04T03:12:48.950Z,6.43
2023-02-04T03:17:56.482Z,6.43
2023-02-04T03:22:59.878Z,6.80
2023-02-04T03:28:05.464Z,6.63
2023-02-04T03:33:08.585Z,6.63
2023-02-04T03:38:11.591Z,7.00
2023-02-04T03:43:16.217Z,6.20
2023-02-04T03:48:19.732Z,7.00
2023-02-04T03:53:23.163Z,5.47
2023-02-04T03:58:27.651Z,5.20
2023-02-04T04:03:30.776Z,5.87
2023-02-04T04:08:34.531Z,5.27
2023-02-04T04:13:38.839Z,5.80
2023-02-04T04:18:42.090Z,4.50
2023-02-04T04:23:45.113Z,4.47
2023-02-04T04:28:49.418Z,4.40
2023-02-04T04:33:52.390Z,6.43
2023-02-04T04:38:55.375Z,6.50
2023-02-04T04:43:59.842Z,7.90
2023-02-04T04:49:02.817Z,7.53
2023-02-04T04:54:05.972Z,6.47
2023-02-04T04:59:10.460Z,5.83
2023-02-04T05:04:13.407Z,5.40
2023-02-04T05:09:17.501Z,4.90
2023-02-04T05:14:22.103Z,5.43
2023-02-04T05:19:25.467Z,5.63
2023-02-04T05:24:28.793Z,5.20
2023-02-04T05:29:33.269Z,6.30
2023-02-04T05:34:36.451Z,6.70
2023-02-04T05:39:39.386Z,6.13
2023-02-04T05:44:43.787Z,6.10
2023-02-04T05:49:46.890Z,6.20
2023-02-04T05:54:50.058Z,5.93
2023-02-04T05:59:54.387Z,6.00
2023-02-04T06:04:57.382Z,5.37
2023-02-04T06:10:00.535Z,6.07
2023-02-04T06:15:05.587Z,7.00
2023-02-04T06:20:10.077Z,6.07
2023-02-04T06:25:13.142Z,7.90
2023-02-04T06:30:18.230Z,7.23
2023-02-04T06:35:21.256Z,6.67
2023-02-04T06:40:24.204Z,7.50
2023-02-04T06:45:28.635Z,6.57
2023-02-04T06:50:31.768Z,5.93
2023-02-04T06:55:35.007Z,4.90
2023-02-04T07:00:39.448Z,5.50
2023-02-04T07:05:42.418Z,6.13
2023-02-04T07:10:45.416Z,5.80
2023-02-04T07:15:49.906Z,5.70
2023-02-04T07:20:53.029Z,5.40
2023-02-04T07:25:57.460Z,5.10
2023-02-04T07:31:02.052Z,5.30
2023-02-04T07:36:05.532Z,6.50
2023-02-04T07:41:08.471Z,5.50
2023-02-04T07:46:13.041Z,5.43
2023-02-04T07:51:16.265Z,5.17
2023-02-04T07:56:19.299Z,6.37
2023-02-04T08:01:23.737Z,5.53
2023-02-04T08:06:26.950Z,5.10
2023-02-04T08:11:29.969Z,6.27
2023-02-04T08:16:34.408Z,5.63
2023-02-04T08:21:37.547Z,5.90
2023-02-04T08:26:40.778Z,6.83
2023-02-04T08:31:47.814Z,6.73
2023-02-04T08:36:50.873Z,6.27
2023-02-04T08:41:53.825Z,6.07
2023-02-04T08:46:58.218Z,5.70
2023-02-04T08:52:02.980Z,6.43
2023-02-04T08:57:06.055Z,7.03
2023-02-04T09:02:11.632Z,6.03
2023-02-04T09:07:14.758Z,6.90
2023-02-04T09:12:17.920Z,6.40
2023-02-04T09:17:22.544Z,8.20
2023-02-04T09:22:25.690Z,6.07
2023-02-04T09:27:29.005Z,6.80
2023-02-04T09:32:33.319Z,7.13
2023-02-04T09:37:36.561Z,5.77
2023-02-04T09:42:39.958Z,6.33
2023-02-04T09:47:44.424Z,5.60
2023-02-04T09:52:50.490Z,6.90
2023-02-04T09:57:53.808Z,6.13
2023-02-04T10:03:00.105Z,6.17
2023-02-04T10:08:03.134Z,6.80
2023-02-04T10:13:08.469Z,5.70
2023-02-04T10:18:18.800Z,6.67
2023-02-04T10:23:22.463Z,6.40
2023-02-04T10:28:35.104Z,7.37
2023-02-04T10:33:40.036Z,5.87
2023-02-04T10:38:43.079Z,5.80
2023-02-04T10:43:46.110Z,6.40
2023-02-04T10:48:50.860Z,5.37
2023-02-04T10:54:12.953Z,6.20
2023-02-04T10:59:26.792Z,5.87
2023-02-04T11:04:31.199Z,5.30
2023-02-04T11:09:34.271Z,4.70
2023-02-04T11:14:37.269Z,4.70
2023-02-04T11:19:43.704Z,4.37
2023-02-04T11:24:46.735Z,5.40
2023-02-04T11:29:50.183Z,5.17
2023-02-04T11:34:57.356Z,7.07
2023-02-04T11:40:02.286Z,5.73
2023-02-04T11:45:15.430Z,4.67
2023-02-04T11:50:24.953Z,5.33
2023-02-04T11:55:28.271Z,4.73
2023-02-04T12:00:33.997Z,4.80
2023-02-04T12:05:41.952Z,3.90
2023-02-04T12:10:50.876Z,4.40
2023-02-04T12:15:59.118Z,4.13
2023-02-04T12:21:05.012Z,3.50
2023-02-04T12:26:09.479Z,3.03
2023-02-04T12:31:15.477Z,3.83
2023-02-04T12:36:20.068Z,3.20
2023-02-04T12:41:23.560Z,3.73
2023-02-04T12:46:26.535Z,3.70
2023-02-04T12:51:30.920Z,3.97
2023-02-04T12:56:34.009Z,3.80
2023-02-04T13:01:37.081Z,3.43
2023-02-04T13:06:41.598Z,2.57
2023-02-04T13:11:44.652Z,2.97
2023-02-04T13:16:47.656Z,5.03
2023-02-04T13:21:52.069Z,4.20
2023-02-04T13:26:55.147Z,3.93
2023-02-04T13:31:58.238Z,4.30
2023-02-04T13:37:02.761Z,3.83
2023-02-04T13:42:07.166Z,3.00
2023-02-04T13:47:10.215Z,3.37
2023-02-04T13:52:14.623Z,3.10
2023-02-04T13:57:17.992Z,3.63
2023-02-04T14:02:23.637Z,2.50
2023-02-04T14:07:28.314Z,3.47
2023-02-04T14:12:31.406Z,2.80
2023-02-04T14:17:34.414Z,2.83
2023-02-04T14:22:39.040Z,2.87
2023-02-04T14:27:42.755Z,3.97
2023-02-04T14:32:45.861Z,4.03
2023-02-04T14:37:50.408Z,3.43
2023-02-04T14:42:53.722Z,4.20
2023-02-04T14:47:57.136Z,4.40
2023-02-04T14:53:01.577Z,3.90
2023-02-04T14:58:04.717Z,4.13
2023-02-04T15:03:07.741Z,3.93
2023-02-04T15:08:12.213Z,4.27
2023-02-04T15:13:15.339Z,3.90
2023-02-04T15:18:18.428Z,3.77
2023-02-04T15:23:22.914Z,3.43
2023-02-04T15:28:27.924Z,3.77
2023-02-04T15:33:31.108Z,3.87
2023-02-04T15:38:35.591Z,3.70
2023-02-04T15:43:38.940Z,4.10
2023-02-04T15:48:42.040Z,4.13
2023-02-04T15:53:46.484Z,4.10
2023-02-04T15:58:49.653Z,3.93
2023-02-04T16:03:56.440Z,4.23
2023-02-04T16:09:00.878Z,4.20
2023-02-04T16:14:03.975Z,4.07
2023-02-04T16:19:07.292Z,4.67
2023-02-04T16:24:13.206Z,2.97
2023-02-04T16:29:16.619Z,3.37
2023-02-04T16:34:19.710Z,3.67
2023-02-04T16:39:24.470Z,3.30
2023-02-04T16:44:27.593Z,3.20
2023-02-04T16:49:30.724Z,4.73
2023-02-04T16:54:35.848Z,4.30
2023-02-04T16:59:39.221Z,4.40
2023-02-04T17:04:42.446Z,4.97
2023-02-04T17:09:46.957Z,4.57
2023-02-04T17:14:50.036Z,4.20
2023-02-04T17:19:52.931Z,4.20
2023-02-04T17:24:57.271Z,5.33
2023-02-04T17:30:00.347Z,5.07
2023-02-04T17:35:03.623Z,4.70
2023-02-04T17:40:13.008Z,5.00
2023-02-04T17:45:16.768Z,5.20
2023-02-04T17:50:20.282Z,5.47
2023-02-04T17:55:28.515Z,5.23
2023-02-04T18:00:33.147Z,5.20
2023-02-04T18:05:36.803Z,6.50
2023-02-04T18:10:43.783Z,6.17
2023-02-04T18:15:49.434Z,6.77
2023-02-04T18:21:00.375Z,7.60
2023-02-04T18:26:13.138Z,6.73
2023-02-04T18:31:29.833Z,7.17
2023-02-04T18:36:34.653Z,6.47
2023-02-04T18:41:41.508Z,6.63
2023-02-04T18:46:49.305Z,7.30
2023-02-04T18:51:52.962Z,7.40
2023-02-04T18:57:05.592Z,7.30
2023-02-04T19:02:30.574Z,6.30
2023-02-04T19:07:36.090Z,7.73
2023-02-04T19:12:40.429Z,7.27
2023-02-04T19:17:43.817Z,8.27
2023-02-04T19:22:49.795Z,7.80
2023-02-04T19:27:56.121Z,7.60
2023-02-04T19:33:00.416Z,7.67
2023-02-04T19:38:27.493Z,8.27
2023-02-04T19:43:37.603Z,9.43
2023-02-04T19:48:40.834Z,7.57
2023-02-04T19:53:46.346Z,9.13
2023-02-04T19:58:52.939Z,8.70
2023-02-04T20:04:01.094Z,9.83
2023-02-04T20:09:07.763Z,8.93
2023-02-04T20:14:24.270Z,13.53
2023-02-04T20:19:29.956Z,12.60
2023-02-04T20:24:36.905Z,11.40
2023-02-04T20:29:41.239Z,12.97
2023-02-04T20:34:44.373Z,12.33
2023-02-04T20:39:47.456Z,11.50
2023-02-04T20:44:52.301Z,12.90
2023-02-04T20:49:57.201Z,14.40
2023-02-04T20:55:02.197Z,16.40
2023-02-04T21:00:14.896Z,16.13
2023-02-04T21:05:24.618Z,15.97
2023-02-04T21:10:27.724Z,14.77
2023-02-04T21:15:34.182Z,18.70
2023-02-04T21:20:37.363Z,15.57
2023-02-04T21:25:40.390Z,17.87
2023-02-04T21:30:44.936Z,17.13
2023-02-04T21:35:48.093Z,17.53
2023-02-04T21:40:51.250Z,16.83
2023-02-04T21:45:55.910Z,16.67
2023-02-04T21:50:59.004Z,15.53
2023-02-04T21:56:02.270Z,16.03
2023-02-04T22:01:07.413Z,16.83
2023-02-04T22:06:10.406Z,18.47
2023-02-04T22:11:13.465Z,18.13
2023-02-04T22:16:17.951Z,19.53
2023-02-04T22:21:21.266Z,21.97
2023-02-04T22:26:24.270Z,21.67
2023-02-04T22:31:28.643Z,19.47
2023-02-04T22:36:31.886Z,24.27
2023-02-04T22:41:35.017Z,21.83
2023-02-04T22:46:39.518Z,20.63
2023-02-04T22:51:42.982Z,19.80
2023-02-04T22:56:46.226Z,21.20
2023-02-04T23:01:50.781Z,20.17
2023-02-04T23:06:54.066Z,20.70
2023-02-04T23:11:58.095Z,19.77
2023-02-04T23:17:02.400Z,19.90
2023-02-04T23:22:06.559Z,19.60
2023-02-04T23:27:11.409Z,19.83
2023-02-04T23:32:15.825Z,18.23
2023-02-04T23:37:18.940Z,18.77
2023-02-04T23:42:22.015Z,20.20
2023-02-04T23:47:26.387Z,15.60
2023-02-04T23:52:29.465Z,16.80
2023-02-04T23:57:32.461Z,15.43
